Terminal Aerodrome Forecast
Issued by NWS Aberdeen, SD

Home | Current Version | Previous Version | Text Only | Print | Product List | Glossary On
Versions: 1 2 3 4 5 6 7 8 9 10 11 12 13 14 15 16 17 18 19 20 21 22 23 24 25 26 27 28
000
FTUS43 KABR 231140
TAFABR
TAF
KABR 231140Z 2312/2412 17005KT P6SM SCT250
     FM232300 14006KT P6SM BKN090
     FM240300 04009KT P6SM BKN060
     FM241100 02015G22KT P6SM -SHRA OVC035=

USA.gov is the U.S. government's official web portal to all federal, state and local government web resources and services.